createdAt,value
2023-03-26T00:01:40.623Z,81.83
2023-03-26T00:04:08.395Z,81.83
2023-03-26T00:06:39.460Z,82.10
2023-03-26T00:09:09.981Z,82.15
2023-03-26T00:11:37.634Z,81.92
2023-03-26T00:14:06.475Z,82.24
2023-03-26T00:16:34.252Z,82.26
2023-03-26T00:19:02.519Z,82.42
2023-03-26T00:21:31.285Z,82.47
2023-03-26T00:24:01.097Z,83.42
2023-03-26T00:26:31.063Z,82.07
2023-03-26T00:29:00.265Z,82.26
2023-03-26T00:31:29.319Z,82.93
2023-03-26T00:33:57.712Z,82.58
2023-03-26T00:36:26.726Z,82.92
2023-03-26T00:38:55.388Z,83.43
2023-03-26T00:41:26.135Z,82.72
2023-03-26T00:43:58.702Z,83.08
2023-03-26T00:46:28.033Z,82.79
2023-03-26T00:49:00.581Z,83.06
2023-03-26T00:51:28.924Z,83.04
2023-03-26T00:53:57.854Z,82.89
2023-03-26T00:56:25.922Z,82.90
2023-03-26T00:58:53.579Z,83.38
2023-03-26T01:01:30.382Z,83.17
2023-03-26T01:04:31.966Z,83.15
2023-03-26T01:07:02.756Z,82.93
2023-03-26T01:09:34.859Z,83.10
2023-03-26T01:12:04.632Z,82.09
2023-03-26T01:14:32.423Z,82.75
2023-03-26T01:17:01.839Z,81.68
2023-03-26T01:19:38.241Z,81.24
2023-03-26T01:22:11.119Z,80.77
2023-03-26T01:24:41.059Z,80.02
2023-03-26T01:27:17.988Z,80.38
2023-03-26T01:29:53.567Z,79.38
2023-03-26T01:32:55.593Z,79.76
2023-03-26T01:35:38.625Z,79.97
2023-03-26T01:38:16.988Z,79.62
2023-03-26T01:40:52.211Z,79.66
2023-03-26T01:43:31.129Z,79.59
2023-03-26T01:46:01.685Z,78.67
2023-03-26T01:48:31.957Z,78.91
2023-03-26T01:50:59.362Z,80.59
2023-03-26T01:53:27.411Z,81.25
2023-03-26T01:56:05.895Z,81.59
2023-03-26T01:58:40.373Z,81.40
2023-03-26T02:01:19.526Z,81.87
2023-03-26T02:03:53.110Z,81.88
2023-03-26T02:06:26.168Z,81.78
2023-03-26T02:08:59.237Z,82.75
2023-03-26T02:11:35.560Z,82.42
2023-03-26T02:14:04.818Z,82.61
2023-03-26T02:16:32.219Z,82.14
2023-03-26T02:19:00.305Z,83.10
2023-03-26T02:21:28.550Z,82.98
2023-03-26T02:24:03.726Z,82.85
2023-03-26T02:26:37.622Z,83.43
2023-03-26T02:29:12.479Z,83.94
2023-03-26T02:31:43.346Z,83.93
2023-03-26T02:34:10.904Z,83.89
2023-03-26T02:36:42.872Z,84.13
2023-03-26T02:39:10.977Z,83.57
2023-03-26T02:41:40.477Z,83.64
2023-03-26T02:44:12.623Z,82.82
2023-03-26T02:46:58.332Z,84.01
2023-03-26T02:49:44.710Z,84.44
2023-03-26T02:52:18.661Z,84.35
2023-03-26T02:54:48.706Z,84.55
2023-03-26T02:57:23.070Z,83.22
2023-03-26T03:00:09.111Z,83.30
2023-03-26T03:02:38.876Z,84.52
2023-03-26T03:05:31.397Z,85.55
2023-03-26T03:08:28.062Z,85.31
2023-03-26T03:11:26.900Z,84.90
2023-03-26T03:13:56.153Z,83.81
2023-03-26T03:16:26.436Z,85.64
2023-03-26T03:18:57.464Z,85.65
2023-03-26T03:21:29.436Z,84.73
2023-03-26T03:23:59.766Z,85.72
2023-03-26T03:26:29.725Z,85.64
2023-03-26T03:29:02.560Z,85.28
2023-03-26T03:31:30.052Z,85.69
2023-03-26T03:34:03.178Z,85.70
2023-03-26T03:36:38.259Z,85.46
2023-03-26T03:39:13.095Z,85.29
2023-03-26T03:41:40.779Z,85.19
2023-03-26T03:44:14.136Z,85.43
2023-03-26T03:46:41.560Z,85.91
2023-03-26T03:49:09.084Z,85.49
2023-03-26T03:51:38.319Z,85.77
2023-03-26T03:54:14.569Z,85.40
2023-03-26T03:56:48.603Z,85.52
2023-03-26T03:59:38.899Z,85.10
2023-03-26T04:02:39.644Z,86.23
2023-03-26T04:05:07.583Z,86.05
2023-03-26T04:07:37.153Z,86.39
2023-03-26T04:10:09.463Z,86.79
2023-03-26T04:12:59.860Z,86.38
2023-03-26T04:15:56.075Z,86.29
2023-03-26T04:18:24.299Z,86.50
2023-03-26T04:20:51.892Z,86.63
2023-03-26T04:23:24.471Z,87.11
2023-03-26T04:26:04.149Z,86.12
2023-03-26T04:28:54.266Z,86.18
2023-03-26T04:31:30.547Z,86.13
2023-03-26T04:34:08.125Z,86.22
2023-03-26T04:36:46.226Z,86.22
2023-03-26T04:39:14.208Z,85.80
2023-03-26T04:42:09.897Z,86.09
2023-03-26T04:44:50.763Z,86.31
2023-03-26T04:47:20.103Z,86.31
2023-03-26T04:49:48.424Z,86.10
2023-03-26T04:52:17.660Z,85.67
2023-03-26T04:54:54.005Z,86.25
2023-03-26T04:57:27.691Z,85.99
2023-03-26T05:00:14.971Z,85.21
2023-03-26T05:02:45.836Z,84.34
2023-03-26T05:05:13.775Z,84.65
2023-03-26T05:07:42.273Z,84.60
2023-03-26T05:10:13.404Z,84.36
2023-03-26T05:12:51.246Z,84.56
2023-03-26T05:15:26.411Z,84.17
2023-03-26T05:17:55.679Z,83.91
2023-03-26T05:20:38.404Z,84.05
2023-03-26T05:23:08.032Z,83.86
2023-03-26T05:25:42.030Z,83.18
2023-03-26T05:28:28.336Z,83.74
2023-03-26T05:31:01.023Z,82.69
2023-03-26T05:33:34.249Z,82.69
2023-03-26T05:36:09.436Z,81.88
2023-03-26T05:38:37.484Z,81.49
2023-03-26T05:41:09.390Z,82.54
2023-03-26T05:43:41.597Z,82.26
2023-03-26T05:46:12.594Z,82.92
2023-03-26T05:48:41.542Z,82.73
2023-03-26T05:51:09.190Z,82.50
2023-03-26T05:53:41.440Z,82.94
2023-03-26T05:56:27.706Z,81.27
2023-03-26T05:59:16.511Z,81.78
2023-03-26T06:02:03.930Z,81.19
2023-03-26T06:04:42.657Z,81.55
2023-03-26T06:07:39.227Z,81.90
2023-03-26T06:10:19.203Z,81.39
2023-03-26T06:12:47.184Z,80.45
2023-03-26T06:15:15.504Z,80.65
2023-03-26T06:17:47.794Z,80.22
2023-03-26T06:20:33.782Z,80.70
2023-03-26T06:23:06.705Z,81.47
2023-03-26T06:25:46.611Z,82.10
2023-03-26T06:28:35.545Z,81.69
2023-03-26T06:31:20.708Z,75.03
2023-03-26T06:33:55.219Z,77.78
2023-03-26T06:36:24.407Z,78.18
2023-03-26T06:38:51.935Z,77.56
2023-03-26T06:41:19.411Z,77.19
2023-03-26T06:44:08.362Z,76.45
2023-03-26T06:46:54.650Z,75.12
2023-03-26T06:49:43.104Z,75.36
2023-03-26T06:52:33.194Z,76.96
2023-03-26T06:55:35.649Z,76.63
2023-03-26T06:58:29.424Z,76.77
2023-03-26T07:01:19.941Z,77.00
2023-03-26T07:04:05.729Z,77.59
2023-03-26T07:07:05.525Z,76.74
2023-03-26T07:10:12.963Z,76.47
2023-03-26T07:12:43.513Z,76.10
2023-03-26T07:15:49.289Z,74.48
2023-03-26T07:18:44.012Z,75.86
2023-03-26T07:21:17.357Z,75.80
2023-03-26T07:23:45.588Z,75.93
2023-03-26T07:26:38.361Z,76.96
2023-03-26T07:29:24.901Z,76.33
2023-03-26T07:32:34.351Z,74.77
2023-03-26T07:35:23.923Z,73.98
2023-03-26T07:38:33.295Z,74.18
2023-03-26T07:41:28.944Z,74.72
2023-03-26T07:44:23.733Z,73.79
2023-03-26T07:47:04.680Z,74.80
2023-03-26T07:49:43.300Z,74.63
2023-03-26T07:52:23.875Z,75.41
2023-03-26T07:54:54.948Z,74.79
2023-03-26T07:58:05.750Z,74.82
2023-03-26T08:01:10.170Z,74.43
2023-03-26T08:03:53.239Z,75.40
2023-03-26T08:06:48.794Z,75.41
2023-03-26T08:09:32.533Z,74.69
2023-03-26T08:12:33.947Z,75.28
2023-03-26T08:15:12.383Z,77.18
2023-03-26T08:17:49.850Z,77.51
2023-03-26T08:20:31.000Z,77.86
2023-03-26T08:23:07.750Z,78.64
2023-03-26T08:25:44.936Z,79.06
2023-03-26T08:28:33.718Z,79.36
2023-03-26T08:31:03.073Z,78.28
2023-03-26T08:33:32.510Z,79.11
2023-03-26T08:35:59.973Z,80.81
2023-03-26T08:38:27.540Z,81.34
2023-03-26T08:41:29.040Z,82.35
2023-03-26T08:44:14.048Z,82.36
2023-03-26T08:47:11.149Z,82.63
2023-03-26T08:49:58.948Z,83.24
2023-03-26T08:52:54.020Z,82.19
2023-03-26T08:55:43.223Z,82.22
2023-03-26T08:58:31.640Z,82.93
2023-03-26T09:01:22.126Z,83.06
2023-03-26T09:04:17.945Z,83.32
2023-03-26T09:07:19.063Z,83.30
2023-03-26T09:10:21.517Z,83.05
2023-03-26T09:13:14.551Z,80.21
2023-03-26T09:16:17.438Z,79.67
2023-03-26T09:19:12.686Z,80.88
2023-03-26T09:22:16.725Z,81.64
2023-03-26T09:25:08.594Z,81.12
2023-03-26T09:27:48.803Z,82.04
2023-03-26T09:31:02.483Z,81.31
2023-03-26T09:33:53.945Z,81.18
2023-03-26T09:36:33.026Z,80.31
2023-03-26T09:39:09.551Z,81.03
2023-03-26T09:41:43.723Z,80.94
2023-03-26T09:44:51.916Z,78.58
2023-03-26T09:47:43.099Z,79.76
2023-03-26T09:50:46.900Z,78.44
2023-03-26T09:53:28.143Z,80.07
2023-03-26T09:56:18.588Z,78.95
2023-03-26T09:59:18.163Z,76.00
2023-03-26T10:01:57.436Z,76.02
2023-03-26T10:04:42.066Z,76.50
2023-03-26T10:07:21.957Z,74.97
2023-03-26T10:09:57.663Z,75.47
2023-03-26T10:12:33.684Z,76.13
2023-03-26T10:15:12.895Z,76.63
2023-03-26T10:17:56.929Z,74.71
2023-03-26T10:20:33.995Z,74.70
2023-03-26T10:23:15.831Z,75.66
2023-03-26T10:25:56.260Z,74.92
2023-03-26T10:28:45.007Z,73.44
2023-03-26T10:31:42.659Z,71.07
2023-03-26T10:34:30.242Z,69.93
2023-03-26T10:37:08.240Z,68.06
2023-03-26T10:40:05.987Z,67.15
2023-03-26T10:42:50.478Z,67.80
2023-03-26T10:45:38.771Z,67.92
2023-03-26T10:48:22.026Z,64.76
2023-03-26T10:51:06.231Z,64.85
2023-03-26T10:53:41.509Z,65.57
2023-03-26T10:56:17.090Z,65.24
2023-03-26T10:58:49.320Z,63.35
2023-03-26T11:01:28.090Z,64.33
2023-03-26T11:04:02.487Z,64.63
2023-03-26T11:06:42.936Z,65.19
2023-03-26T11:09:30.336Z,64.29
2023-03-26T11:12:25.442Z,63.39
2023-03-26T11:15:00.699Z,60.85
2023-03-26T11:17:39.461Z,58.68
2023-03-26T11:20:16.057Z,59.20
2023-03-26T11:22:56.580Z,57.68
2023-03-26T11:25:40.765Z,56.17
2023-03-26T11:28:25.293Z,56.57
2023-03-26T11:30:58.265Z,57.03
2023-03-26T11:33:32.804Z,57.44
2023-03-26T11:36:06.783Z,57.57
2023-03-26T11:38:39.531Z,55.87
2023-03-26T11:41:13.355Z,57.83
2023-03-26T11:43:53.999Z,56.01
2023-03-26T11:46:23.961Z,55.55
2023-03-26T11:48:58.094Z,56.77
2023-03-26T11:51:29.414Z,55.25
2023-03-26T11:53:59.152Z,56.11
2023-03-26T11:56:32.198Z,54.21
2023-03-26T11:59:05.568Z,54.77
2023-03-26T12:01:50.775Z,53.82
2023-03-26T12:04:24.977Z,53.75
2023-03-26T12:06:56.530Z,55.67
2023-03-26T12:09:26.641Z,54.64
2023-03-26T12:11:59.774Z,54.74
2023-03-26T12:14:29.705Z,52.19
2023-03-26T12:16:59.599Z,53.12
2023-03-26T12:19:28.989Z,52.56
2023-03-26T12:21:56.507Z,50.86
2023-03-26T12:24:29.261Z,50.63
2023-03-26T12:27:01.987Z,51.50
2023-03-26T12:29:34.440Z,52.78
2023-03-26T12:32:07.753Z,50.64
2023-03-26T12:34:37.523Z,50.61
2023-03-26T12:37:07.016Z,51.46
2023-03-26T12:40:07.305Z,47.91
2023-03-26T12:44:45.243Z,50.23
2023-03-26T12:45:19.887Z,47.14
2023-03-26T12:47:59.727Z,47.90
2023-03-26T12:50:45.615Z,49.27
2023-03-26T12:53:33.721Z,48.63
2023-03-26T12:56:19.646Z,47.71
2023-03-26T12:59:04.095Z,48.06
2023-03-26T13:01:46.824Z,45.90
2023-03-26T13:04:30.055Z,47.08
2023-03-26T13:07:04.517Z,45.98
2023-03-26T13:10:19.893Z,44.16
2023-03-26T13:13:01.367Z,42.70
2023-03-26T13:15:57.378Z,43.06
2023-03-26T13:18:38.007Z,41.56
2023-03-26T13:21:10.974Z,43.65
2023-03-26T13:23:47.128Z,42.20
2023-03-26T13:26:34.206Z,43.17
2023-03-26T13:29:12.135Z,42.70
2023-03-26T13:31:45.607Z,41.06
2023-03-26T13:34:23.582Z,39.89
2023-03-26T13:37:06.496Z,40.98
2023-03-26T13:39:45.628Z,40.97
2023-03-26T13:42:25.430Z,41.32
2023-03-26T13:45:04.524Z,39.79
2023-03-26T13:47:36.943Z,40.56
2023-03-26T13:50:14.782Z,38.33
2023-03-26T13:52:46.414Z,38.61
2023-03-26T13:55:22.120Z,38.34
2023-03-26T13:57:56.858Z,39.28
2023-03-26T14:00:32.648Z,36.94
2023-03-26T14:03:06.729Z,38.54
2023-03-26T14:05:41.340Z,38.75
2023-03-26T14:08:17.146Z,36.15
2023-03-26T14:10:50.515Z,36.46
2023-03-26T14:13:22.449Z,35.58
2023-03-26T14:15:55.890Z,38.30
2023-03-26T14:18:30.272Z,36.33
2023-03-26T14:21:26.181Z,36.19
2023-03-26T14:24:17.519Z,37.48
2023-03-26T14:26:58.513Z,38.95
2023-03-26T14:29:31.308Z,40.05
2023-03-26T14:32:10.564Z,40.43
2023-03-26T14:34:52.692Z,39.77
2023-03-26T14:37:58.447Z,40.98
2023-03-26T14:40:56.748Z,43.79
2023-03-26T14:43:58.341Z,42.01
2023-03-26T14:46:39.087Z,43.21
2023-03-26T14:49:29.272Z,43.32
2023-03-26T14:52:05.930Z,42.77
2023-03-26T14:54:38.543Z,44.29
2023-03-26T14:57:23.891Z,46.70
2023-03-26T15:00:19.992Z,49.58
2023-03-26T15:03:40.735Z,50.06
2023-03-26T15:06:38.710Z,51.50
2023-03-26T15:09:50.929Z,50.73
2023-03-26T15:12:33.427Z,49.56
2023-03-26T15:15:30.704Z,50.42
2023-03-26T15:18:27.120Z,53.57
2023-03-26T15:21:34.343Z,54.62
2023-03-26T15:24:40.422Z,55.73
2023-03-26T15:27:29.176Z,56.64
2023-03-26T15:30:42.166Z,58.89
2023-03-26T15:33:41.808Z,60.85
2023-03-26T15:36:44.682Z,61.16
2023-03-26T15:39:59.613Z,61.31
2023-03-26T15:42:44.714Z,61.58
2023-03-26T15:45:34.627Z,61.17
2023-03-26T15:48:40.958Z,60.65
2023-03-26T15:51:24.530Z,61.13
2023-03-26T15:53:58.961Z,60.81
2023-03-26T15:56:44.049Z,62.29
2023-03-26T15:59:30.919Z,63.36
2023-03-26T16:02:10.015Z,63.40
2023-03-26T16:04:50.338Z,63.78
2023-03-26T16:07:50.069Z,62.18
2023-03-26T16:10:33.879Z,63.69
2023-03-26T16:13:36.685Z,63.39
2023-03-26T16:16:45.335Z,64.64
2023-03-26T16:19:36.234Z,64.71
2023-03-26T16:22:07.575Z,66.34
2023-03-26T16:24:39.878Z,67.42
2023-03-26T16:27:28.975Z,69.11
2023-03-26T16:30:07.293Z,70.78
2023-03-26T16:32:40.356Z,72.34
2023-03-26T16:35:40.286Z,73.44
2023-03-26T16:38:13.359Z,72.88
2023-03-26T16:41:03.671Z,74.01
2023-03-26T16:43:46.743Z,74.81
2023-03-26T16:46:28.696Z,73.28
2023-03-26T16:49:06.670Z,73.84
2023-03-26T16:51:53.670Z,74.95
2023-03-26T16:54:28.138Z,74.57
2023-03-26T16:57:01.983Z,76.40
2023-03-26T17:00:07.733Z,76.85
2023-03-26T17:02:49.950Z,77.20
2023-03-26T17:05:24.714Z,78.01
2023-03-26T17:08:01.241Z,78.52
2023-03-26T17:10:36.221Z,78.49
2023-03-26T17:13:10.937Z,77.77
2023-03-26T17:15:47.011Z,78.55
2023-03-26T17:18:27.639Z,77.49
2023-03-26T17:21:02.148Z,77.18
2023-03-26T17:23:48.224Z,77.63
2023-03-26T17:26:35.147Z,77.06
2023-03-26T17:29:37.678Z,77.73
2023-03-26T17:32:09.243Z,77.38
2023-03-26T17:34:56.718Z,76.83
2023-03-26T17:37:39.037Z,77.27
2023-03-26T17:40:47.827Z,76.29
2023-03-26T17:43:38.124Z,76.32
2023-03-26T17:46:20.905Z,75.54
2023-03-26T17:48:56.599Z,76.21
2023-03-26T17:51:38.298Z,75.90
2023-03-26T17:54:18.190Z,75.71
2023-03-26T17:56:47.438Z,76.07
2023-03-26T17:59:23.183Z,75.44
2023-03-26T18:01:55.393Z,74.76
2023-03-26T18:04:29.938Z,75.40
2023-03-26T18:07:15.158Z,75.23
2023-03-26T18:10:00.684Z,75.00
2023-03-26T18:12:45.306Z,74.60
2023-03-26T18:15:30.921Z,74.90
2023-03-26T18:18:09.583Z,74.78
2023-03-26T18:20:37.855Z,75.02
2023-03-26T18:23:11.041Z,74.15
2023-03-26T18:25:41.185Z,73.63
2023-03-26T18:28:14.049Z,74.16
2023-03-26T18:30:47.200Z,74.25
2023-03-26T18:33:15.878Z,74.18
2023-03-26T18:35:46.133Z,74.82
2023-03-26T18:38:19.343Z,74.63
2023-03-26T18:41:08.046Z,74.33
2023-03-26T18:43:44.626Z,74.28
2023-03-26T18:46:13.645Z,74.90
2023-03-26T18:48:41.836Z,74.58
2023-03-26T18:51:10.260Z,74.93
2023-03-26T18:53:39.690Z,74.85
2023-03-26T18:56:27.348Z,74.32
2023-03-26T18:58:57.658Z,74.06
2023-03-26T19:01:30.541Z,74.77
2023-03-26T19:03:59.849Z,74.83
2023-03-26T19:06:28.051Z,74.66
2023-03-26T19:08:57.262Z,74.89
2023-03-26T19:11:27.525Z,74.65
2023-03-26T19:14:07.711Z,74.30
2023-03-26T19:16:37.201Z,74.58
2023-03-26T19:19:07.711Z,74.73
2023-03-26T19:21:36.578Z,74.36
2023-03-26T19:24:05.335Z,74.36
2023-03-26T19:26:36.443Z,74.58
2023-03-26T19:29:05.508Z,74.68
2023-03-26T19:31:35.263Z,75.08
2023-03-26T19:34:13.795Z,75.23
2023-03-26T19:36:52.425Z,74.30
2023-03-26T19:39:36.548Z,74.75
2023-03-26T19:42:11.355Z,74.93
2023-03-26T19:44:39.742Z,74.84
2023-03-26T19:47:13.906Z,75.71
2023-03-26T19:49:49.654Z,75.04
2023-03-26T19:52:21.774Z,75.06
2023-03-26T19:55:00.132Z,74.92
2023-03-26T19:57:32.142Z,75.13
2023-03-26T20:00:00.262Z,75.06
2023-03-26T20:02:28.049Z,74.56
2023-03-26T20:04:55.574Z,75.31
2023-03-26T20:07:35.245Z,75.42
2023-03-26T20:10:05.480Z,74.90
2023-03-26T20:12:34.618Z,75.27
2023-03-26T20:15:02.130Z,75.06
2023-03-26T20:17:30.953Z,75.79
2023-03-26T20:19:58.924Z,75.73
2023-03-26T20:22:26.785Z,76.15
2023-03-26T20:24:54.826Z,76.97
2023-03-26T20:27:22.513Z,76.58
2023-03-26T20:29:51.351Z,77.52
2023-03-26T20:32:23.617Z,77.00
2023-03-26T20:34:52.736Z,77.79
2023-03-26T20:37:20.501Z,77.71
2023-03-26T20:39:47.913Z,77.37
2023-03-26T20:42:16.225Z,76.77
2023-03-26T20:44:43.713Z,76.36
2023-03-26T20:47:12.689Z,76.76
2023-03-26T20:49:41.226Z,76.99
2023-03-26T20:52:10.535Z,76.41
2023-03-26T20:54:38.084Z,77.11
2023-03-26T20:57:05.530Z,77.37
2023-03-26T20:59:33.032Z,76.94
2023-03-26T21:02:00.525Z,76.78
2023-03-26T21:04:29.469Z,77.29
2023-03-26T21:07:07.084Z,76.64
2023-03-26T21:09:39.353Z,77.10
2023-03-26T21:12:09.659Z,76.17
2023-03-26T21:14:41.331Z,76.23
2023-03-26T21:17:14.046Z,76.33
2023-03-26T21:19:44.042Z,75.29
2023-03-26T21:22:25.679Z,75.34
2023-03-26T21:25:08.124Z,74.93
2023-03-26T21:27:45.842Z,74.03
2023-03-26T21:30:16.157Z,74.50
2023-03-26T21:32:45.368Z,73.64
2023-03-26T21:35:16.244Z,74.48
2023-03-26T21:37:48.435Z,74.53
2023-03-26T21:40:17.905Z,74.55
2023-03-26T21:42:47.470Z,73.99
2023-03-26T21:45:15.770Z,74.20
2023-03-26T21:47:44.047Z,74.19
2023-03-26T21:50:13.017Z,73.80
2023-03-26T21:52:47.145Z,73.42
2023-03-26T21:55:16.628Z,73.84
2023-03-26T21:57:58.661Z,73.83
2023-03-26T22:00:42.843Z,73.45
2023-03-26T22:03:18.476Z,74.08
2023-03-26T22:05:51.434Z,73.96
2023-03-26T22:08:27.265Z,74.29
2023-03-26T22:10:55.426Z,76.68
2023-03-26T22:13:23.127Z,76.12
2023-03-26T22:15:50.932Z,77.82
2023-03-26T22:18:21.481Z,79.27
2023-03-26T22:20:49.152Z,78.98
2023-03-26T22:23:16.788Z,78.69
2023-03-26T22:25:46.618Z,78.99
2023-03-26T22:28:14.475Z,80.44
2023-03-26T22:30:42.323Z,80.66
2023-03-26T22:33:12.461Z,79.65
2023-03-26T22:35:41.957Z,80.55
2023-03-26T22:38:09.897Z,80.53
2023-03-26T22:40:37.640Z,82.28
2023-03-26T22:43:07.386Z,82.36
2023-03-26T22:45:37.929Z,82.82
2023-03-26T22:48:05.714Z,81.74
2023-03-26T22:50:33.632Z,81.97
2023-03-26T22:53:01.192Z,82.45
2023-03-26T22:55:29.929Z,83.56
2023-03-26T22:57:57.751Z,83.65
2023-03-26T23:00:26.786Z,82.37
2023-03-26T23:03:00.071Z,83.80
2023-03-26T23:05:31.301Z,83.42
2023-03-26T23:07:58.789Z,83.96
2023-03-26T23:10:26.345Z,84.59
2023-03-26T23:12:53.853Z,84.03
2023-03-26T23:15:22.132Z,84.10
2023-03-26T23:17:55.044Z,84.18
2023-03-26T23:20:22.819Z,84.13
2023-03-26T23:22:50.591Z,83.47
2023-03-26T23:25:18.320Z,84.36
2023-03-26T23:27:45.770Z,84.56
2023-03-26T23:30:14.967Z,85.90
2023-03-26T23:32:42.510Z,85.20
2023-03-26T23:35:11.886Z,85.25
2023-03-26T23:37:42.231Z,85.74
2023-03-26T23:40:11.028Z,85.69
2023-03-26T23:42:38.480Z,84.59
2023-03-26T23:45:08.435Z,86.09
2023-03-26T23:47:36.257Z,85.62
2023-03-26T23:50:04.850Z,87.14
2023-03-26T23:52:33.708Z,86.29
2023-03-26T23:55:01.223Z,86.57
2023-03-26T23:57:29.011Z,85.86
2023-03-26T23:59:56.611Z,86.40
